sensor_id;sensor_type;location;lat;lon;timestamp;temperature;humidity
7920;DHT22;18778;47.610;9.776;2023-04-06T00:01:48;-0.70;99.90
7920;DHT22;18778;47.610;9.776;2023-04-06T00:06:40;-0.70;99.90
7920;DHT22;18778;47.610;9.776;2023-04-06T00:09:05;-0.70;99.90
7920;DHT22;18778;47.610;9.776;2023-04-06T00:11:31;-0.60;99.90
7920;DHT22;18778;47.610;9.776;2023-04-06T00:13:56;-0.60;99.90
7920;DHT22;18778;47.610;9.776;2023-04-06T00:16:22;-0.60;99.90
7920;DHT22;18778;47.610;9.776;2023-04-06T00:18:47;-0.60;99.90
7920;DHT22;18778;47.610;9.776;2023-04-06T00:21:14;-0.60;99.90
7920;DHT22;18778;47.610;9.776;2023-04-06T00:23:40;-0.60;99.90
7920;DHT22;18778;47.610;9.776;2023-04-06T00:26:06;-0.50;99.90
7920;DHT22;18778;47.610;9.776;2023-04-06T00:30:57;-0.60;99.90
7920;DHT22;18778;47.610;9.776;2023-04-06T00:33:23;-0.60;99.90
7920;DHT22;18778;47.610;9.776;2023-04-06T00:38:16;-0.60;99.90
7920;DHT22;18778;47.610;9.776;2023-04-06T00:40:42;-0.60;99.90
7920;DHT22;18778;47.610;9.776;2023-04-06T00:43:10;-0.60;99.90
7920;DHT22;18778;47.610;9.776;2023-04-06T00:45:38;-0.60;99.90
7920;DHT22;18778;47.610;9.776;2023-04-06T00:48:04;-0.60;99.90
7920;DHT22;18778;47.610;9.776;2023-04-06T00:50:30;-0.50;99.90
7920;DHT22;18778;47.610;9.776;2023-04-06T00:52:55;-0.60;99.90
7920;DHT22;18778;47.610;9.776;2023-04-06T00:55:21;-0.60;99.90
7920;DHT22;18778;47.610;9.776;2023-04-06T00:57:47;-0.60;99.90
7920;DHT22;18778;47.610;9.776;2023-04-06T01:00:13;-0.60;99.90
7920;DHT22;18778;47.610;9.776;2023-04-06T01:02:39;-0.60;99.90
7920;DHT22;18778;47.610;9.776;2023-04-06T01:05:05;-0.70;99.90
7920;DHT22;18778;47.610;9.776;2023-04-06T01:07:31;-0.70;99.90
7920;DHT22;18778;47.610;9.776;2023-04-06T01:09:57;-0.80;99.90
7920;DHT22;18778;47.610;9.776;2023-04-06T01:12:24;-0.80;99.90
7920;DHT22;18778;47.610;9.776;2023-04-06T01:14:49;-0.70;99.90
7920;DHT22;18778;47.610;9.776;2023-04-06T01:19:41;-0.70;99.90
7920;DHT22;18778;47.610;9.776;2023-04-06T01:24:33;-0.70;99.90
7920;DHT22;18778;47.610;9.776;2023-04-06T01:26:58;-0.70;99.90
7920;DHT22;18778;47.610;9.776;2023-04-06T01:29:24;-0.70;99.90
7920;DHT22;18778;47.610;9.776;2023-04-06T01:31:50;-0.70;99.90
7920;DHT22;18778;47.610;9.776;2023-04-06T01:34:16;-0.70;99.90
7920;DHT22;18778;47.610;9.776;2023-04-06T01:36:41;-0.60;99.90
7920;DHT22;18778;47.610;9.776;2023-04-06T01:39:07;-0.60;99.90
7920;DHT22;18778;47.610;9.776;2023-04-06T01:43:59;-0.60;99.90
7920;DHT22;18778;47.610;9.776;2023-04-06T01:46:24;-0.60;99.90
7920;DHT22;18778;47.610;9.776;2023-04-06T01:48:50;-0.60;99.90
7920;DHT22;18778;47.610;9.776;2023-04-06T01:51:16;-0.60;99.90
7920;DHT22;18778;47.610;9.776;2023-04-06T01:53:41;-0.60;99.90
7920;DHT22;18778;47.610;9.776;2023-04-06T01:56:07;-0.60;99.90
7920;DHT22;18778;47.610;9.776;2023-04-06T02:00:58;-0.70;99.90
7920;DHT22;18778;47.610;9.776;2023-04-06T02:03:24;-0.70;99.90
7920;DHT22;18778;47.610;9.776;2023-04-06T02:08:15;-0.90;99.90
7920;DHT22;18778;47.610;9.776;2023-04-06T02:13:07;-1.20;99.90
7920;DHT22;18778;47.610;9.776;2023-04-06T02:15:32;-1.20;99.90
7920;DHT22;18778;47.610;9.776;2023-04-06T02:17:58;-1.30;99.90
7920;DHT22;18778;47.610;9.776;2023-04-06T02:20:24;-1.30;99.90
7920;DHT22;18778;47.610;9.776;2023-04-06T02:30:08;-1.20;99.90
7920;DHT22;18778;47.610;9.776;2023-04-06T02:32:34;-1.30;99.90
7920;DHT22;18778;47.610;9.776;2023-04-06T02:37:26;-1.10;99.90
7920;DHT22;18778;47.610;9.776;2023-04-06T02:39:52;-1.00;99.90
7920;DHT22;18778;47.610;9.776;2023-04-06T02:42:17;-1.00;99.90
7920;DHT22;18778;47.610;9.776;2023-04-06T02:44:43;-1.00;99.90
7920;DHT22;18778;47.610;9.776;2023-04-06T02:54:26;-1.20;99.90
7920;DHT22;18778;47.610;9.776;2023-04-06T02:56:52;-1.40;99.90
7920;DHT22;18778;47.610;9.776;2023-04-06T02:59:17;-1.40;99.90
7920;DHT22;18778;47.610;9.776;2023-04-06T03:01:43;-1.50;99.90
7920;DHT22;18778;47.610;9.776;2023-04-06T03:06:34;-1.70;99.90
7920;DHT22;18778;47.610;9.776;2023-04-06T03:09:00;-1.70;99.90
7920;DHT22;18778;47.610;9.776;2023-04-06T03:11:25;-1.90;99.90
7920;DHT22;18778;47.610;9.776;2023-04-06T03:13:52;-2.00;99.90
7920;DHT22;18778;47.610;9.776;2023-04-06T03:16:17;-2.00;99.90
7920;DHT22;18778;47.610;9.776;2023-04-06T03:21:15;-1.90;99.90
7920;DHT22;18778;47.610;9.776;2023-04-06T03:23:42;-2.00;99.90
7920;DHT22;18778;47.610;9.776;2023-04-06T03:26:07;-2.00;99.90
7920;DHT22;18778;47.610;9.776;2023-04-06T03:28:33;-2.00;99.90
7920;DHT22;18778;47.610;9.776;2023-04-06T03:30:59;-2.00;99.90
7920;DHT22;18778;47.610;9.776;2023-04-06T03:33:25;-2.00;99.90
7920;DHT22;18778;47.610;9.776;2023-04-06T03:35:52;-1.90;99.90
7920;DHT22;18778;47.610;9.776;2023-04-06T03:38:18;-1.90;99.90
7920;DHT22;18778;47.610;9.776;2023-04-06T04:00:12;-2.50;99.90
7920;DHT22;18778;47.610;9.776;2023-04-06T04:02:38;-2.40;99.90
7920;DHT22;18778;47.610;9.776;2023-04-06T04:05:03;-2.30;99.90
7920;DHT22;18778;47.610;9.776;2023-04-06T04:09:55;-2.40;99.90
7920;DHT22;18778;47.610;9.776;2023-04-06T04:12:21;-2.50;99.90
7920;DHT22;18778;47.610;9.776;2023-04-06T04:29:24;-2.50;99.90
7920;DHT22;18778;47.610;9.776;2023-04-06T04:31:50;-2.40;99.90
7920;DHT22;18778;47.610;9.776;2023-04-06T04:34:16;-2.40;99.90
7920;DHT22;18778;47.610;9.776;2023-04-06T04:36:41;-2.30;99.90
7920;DHT22;18778;47.610;9.776;2023-04-06T04:39:07;-2.30;99.90
7920;DHT22;18778;47.610;9.776;2023-04-06T04:43:59;-2.30;99.90
7920;DHT22;18778;47.610;9.776;2023-04-06T04:51:17;-2.30;99.90
7920;DHT22;18778;47.610;9.776;2023-04-06T04:53:42;-2.30;99.90
7920;DHT22;18778;47.610;9.776;2023-04-06T04:58:34;-2.40;99.90
7920;DHT22;18778;47.610;9.776;2023-04-06T05:00:59;-2.30;99.90
7920;DHT22;18778;47.610;9.776;2023-04-06T05:03:26;-2.40;99.90
7920;DHT22;18778;47.610;9.776;2023-04-06T05:05:52;-2.30;99.90
7920;DHT22;18778;47.610;9.776;2023-04-06T05:10:43;-2.30;99.90
7920;DHT22;18778;47.610;9.776;2023-04-06T05:13:13;-2.40;99.90
7920;DHT22;18778;47.610;9.776;2023-04-06T05:15:40;-2.40;99.90
7920;DHT22;18778;47.610;9.776;2023-04-06T05:18:09;-2.40;99.90
7920;DHT22;18778;47.610;9.776;2023-04-06T05:23:01;-2.20;99.90
7920;DHT22;18778;47.610;9.776;2023-04-06T05:30:22;-2.20;99.90
7920;DHT22;18778;47.610;9.776;2023-04-06T05:35:13;-2.10;99.90
7920;DHT22;18778;47.610;9.776;2023-04-06T05:42:41;-2.20;99.90
7920;DHT22;18778;47.610;9.776;2023-04-06T05:45:08;-2.20;99.90
7920;DHT22;18778;47.610;9.776;2023-04-06T05:47:34;-2.00;99.90
7920;DHT22;18778;47.610;9.776;2023-04-06T05:54:52;-1.70;99.90
7920;DHT22;18778;47.610;9.776;2023-04-06T06:02:10;-1.30;99.90
7920;DHT22;18778;47.610;9.776;2023-04-06T06:04:35;-1.20;99.90
7920;DHT22;18778;47.610;9.776;2023-04-06T06:07:01;-1.20;99.90
7920;DHT22;18778;47.610;9.776;2023-04-06T06:09:27;-1.10;99.90
7920;DHT22;18778;47.610;9.776;2023-04-06T06:11:52;-0.90;99.90
7920;DHT22;18778;47.610;9.776;2023-04-06T06:14:18;-0.80;99.90
7920;DHT22;18778;47.610;9.776;2023-04-06T06:16:43;-0.70;99.90
7920;DHT22;18778;47.610;9.776;2023-04-06T06:21:35;-0.70;99.90
7920;DHT22;18778;47.610;9.776;2023-04-06T06:26:27;-0.40;99.90
7920;DHT22;18778;47.610;9.776;2023-04-06T06:36:17;0.10;99.90
7920;DHT22;18778;47.610;9.776;2023-04-06T06:38:43;0.40;99.90
7920;DHT22;18778;47.610;9.776;2023-04-06T06:50:52;1.30;99.90
7920;DHT22;18778;47.610;9.776;2023-04-06T06:53:19;1.70;99.90
7920;DHT22;18778;47.610;9.776;2023-04-06T06:55:45;1.70;99.90
7920;DHT22;18778;47.610;9.776;2023-04-06T07:00:36;2.00;99.90
7920;DHT22;18778;47.610;9.776;2023-04-06T07:05:28;2.60;99.90
7920;DHT22;18778;47.610;9.776;2023-04-06T07:07:54;3.20;99.00
7920;DHT22;18778;47.610;9.776;2023-04-06T07:10:20;3.10;99.20
7920;DHT22;18778;47.610;9.776;2023-04-06T07:12:46;3.50;96.40
7920;DHT22;18778;47.610;9.776;2023-04-06T07:15:11;3.50;96.70
7920;DHT22;18778;47.610;9.776;2023-04-06T07:17:37;3.60;97.30
7920;DHT22;18778;47.610;9.776;2023-04-06T07:24:56;4.30;93.10
7920;DHT22;18778;47.610;9.776;2023-04-06T07:29:47;4.50;92.80
7920;DHT22;18778;47.610;9.776;2023-04-06T07:32:13;4.60;92.30
7920;DHT22;18778;47.610;9.776;2023-04-06T07:44:22;5.20;90.00
7920;DHT22;18778;47.610;9.776;2023-04-06T07:46:48;5.10;89.10
7920;DHT22;18778;47.610;9.776;2023-04-06T07:49:13;5.30;90.70
7920;DHT22;18778;47.610;9.776;2023-04-06T07:51:39;5.50;89.10
7920;DHT22;18778;47.610;9.776;2023-04-06T07:56:31;5.60;90.10
7920;DHT22;18778;47.610;9.776;2023-04-06T08:01:24;6.00;90.40
7920;DHT22;18778;47.610;9.776;2023-04-06T08:11:09;6.20;87.00
7920;DHT22;18778;47.610;9.776;2023-04-06T08:13:35;6.20;85.80
7920;DHT22;18778;47.610;9.776;2023-04-06T08:16:00;6.20;88.60
7920;DHT22;18778;47.610;9.776;2023-04-06T08:18:26;6.20;89.10
7920;DHT22;18778;47.610;9.776;2023-04-06T08:23:18;6.60;86.40
7920;DHT22;18778;47.610;9.776;2023-04-06T08:28:09;6.70;87.20
7920;DHT22;18778;47.610;9.776;2023-04-06T08:33:02;6.80;83.30
7920;DHT22;18778;47.610;9.776;2023-04-06T08:35:28;6.90;83.90
7920;DHT22;18778;47.610;9.776;2023-04-06T08:42:50;7.10;83.50
7920;DHT22;18778;47.610;9.776;2023-04-06T08:45:17;7.10;83.10
7920;DHT22;18778;47.610;9.776;2023-04-06T08:47:43;7.10;86.90
7920;DHT22;18778;47.610;9.776;2023-04-06T08:50:10;7.10;82.10
7920;DHT22;18778;47.610;9.776;2023-04-06T08:52:38;7.30;87.10
7920;DHT22;18778;47.610;9.776;2023-04-06T08:55:04;7.60;84.10
7920;DHT22;18778;47.610;9.776;2023-04-06T08:57:31;7.60;86.70
7920;DHT22;18778;47.610;9.776;2023-04-06T08:59:57;7.80;85.40
7920;DHT22;18778;47.610;9.776;2023-04-06T09:04:52;8.30;82.40
7920;DHT22;18778;47.610;9.776;2023-04-06T09:07:18;8.30;79.40
7920;DHT22;18778;47.610;9.776;2023-04-06T09:12:30;8.50;83.50
7920;DHT22;18778;47.610;9.776;2023-04-06T09:14:58;8.70;84.30
7920;DHT22;18778;47.610;9.776;2023-04-06T09:17:28;8.80;82.20
7920;DHT22;18778;47.610;9.776;2023-04-06T09:24:52;9.00;79.90
7920;DHT22;18778;47.610;9.776;2023-04-06T09:27:30;9.00;77.50
7920;DHT22;18778;47.610;9.776;2023-04-06T09:30:22;9.10;75.20
7920;DHT22;18778;47.610;9.776;2023-04-06T09:32:53;9.40;77.30
7920;DHT22;18778;47.610;9.776;2023-04-06T09:35:20;9.50;74.90
7920;DHT22;18778;47.610;9.776;2023-04-06T09:37:50;9.50;75.50
7920;DHT22;18778;47.610;9.776;2023-04-06T09:42:48;9.80;75.80
7920;DHT22;18778;47.610;9.776;2023-04-06T09:47:44;10.00;75.80
7920;DHT22;18778;47.610;9.776;2023-04-06T09:50:11;10.20;71.50
7920;DHT22;18778;47.610;9.776;2023-04-06T09:55:06;10.20;74.60
7920;DHT22;18778;47.610;9.776;2023-04-06T09:58:06;10.20;68.70
7920;DHT22;18778;47.610;9.776;2023-04-06T10:01:01;10.20;70.80
7920;DHT22;18778;47.610;9.776;2023-04-06T10:06:05;10.70;71.70
7920;DHT22;18778;47.610;9.776;2023-04-06T10:08:37;10.60;68.70
7920;DHT22;18778;47.610;9.776;2023-04-06T10:11:06;10.70;68.10
7920;DHT22;18778;47.610;9.776;2023-04-06T10:13:31;10.70;65.90
7920;DHT22;18778;47.610;9.776;2023-04-06T10:15:57;10.90;66.60
7920;DHT22;18778;47.610;9.776;2023-04-06T10:18:25;11.00;66.60
7920;DHT22;18778;47.610;9.776;2023-04-06T10:20:56;11.00;65.50
7920;DHT22;18778;47.610;9.776;2023-04-06T10:23:43;11.20;67.80
7920;DHT22;18778;47.610;9.776;2023-04-06T10:26:15;11.40;71.50
7920;DHT22;18778;47.610;9.776;2023-04-06T10:28:42;11.20;65.70
7920;DHT22;18778;47.610;9.776;2023-04-06T10:33:35;10.60;61.00
7920;DHT22;18778;47.610;9.776;2023-04-06T10:36:14;10.70;67.80
7920;DHT22;18778;47.610;9.776;2023-04-06T10:38:41;10.90;71.90
7920;DHT22;18778;47.610;9.776;2023-04-06T10:41:09;11.20;66.50
7920;DHT22;18778;47.610;9.776;2023-04-06T10:43:36;11.30;66.30
7920;DHT22;18778;47.610;9.776;2023-04-06T10:46:03;11.40;61.30
7920;DHT22;18778;47.610;9.776;2023-04-06T10:48:40;11.60;60.50
7920;DHT22;18778;47.610;9.776;2023-04-06T10:51:17;11.30;60.20
7920;DHT22;18778;47.610;9.776;2023-04-06T10:53:44;11.30;71.30
7920;DHT22;18778;47.610;9.776;2023-04-06T10:56:12;11.60;68.20
7920;DHT22;18778;47.610;9.776;2023-04-06T10:58:43;11.80;68.20
7920;DHT22;18778;47.610;9.776;2023-04-06T11:01:11;12.30;66.30
7920;DHT22;18778;47.610;9.776;2023-04-06T11:03:54;11.70;64.40
7920;DHT22;18778;47.610;9.776;2023-04-06T11:06:21;11.60;63.30
7920;DHT22;18778;47.610;9.776;2023-04-06T11:08:47;11.70;64.20
7920;DHT22;18778;47.610;9.776;2023-04-06T11:11:14;11.90;63.60
7920;DHT22;18778;47.610;9.776;2023-04-06T11:13:51;12.00;60.00
7920;DHT22;18778;47.610;9.776;2023-04-06T11:16:18;11.90;62.00
7920;DHT22;18778;47.610;9.776;2023-04-06T11:18:48;12.00;63.10
7920;DHT22;18778;47.610;9.776;2023-04-06T11:21:14;12.20;63.80
7920;DHT22;18778;47.610;9.776;2023-04-06T11:23:39;12.50;68.90
7920;DHT22;18778;47.610;9.776;2023-04-06T11:26:13;12.60;64.10
7920;DHT22;18778;47.610;9.776;2023-04-06T11:28:42;12.60;65.50
7920;DHT22;18778;47.610;9.776;2023-04-06T11:31:09;12.60;61.80
7920;DHT22;18778;47.610;9.776;2023-04-06T11:33:37;12.50;62.30
7920;DHT22;18778;47.610;9.776;2023-04-06T11:36:04;12.60;61.70
7920;DHT22;18778;47.610;9.776;2023-04-06T11:38:30;12.60;64.00
7920;DHT22;18778;47.610;9.776;2023-04-06T11:40:56;12.80;66.90
7920;DHT22;18778;47.610;9.776;2023-04-06T11:46:01;12.90;61.00
7920;DHT22;18778;47.610;9.776;2023-04-06T11:48:28;12.70;62.90
7920;DHT22;18778;47.610;9.776;2023-04-06T11:50:58;12.60;66.90
7920;DHT22;18778;47.610;9.776;2023-04-06T11:53:27;12.40;62.80
7920;DHT22;18778;47.610;9.776;2023-04-06T11:55:53;12.50;63.90
7920;DHT22;18778;47.610;9.776;2023-04-06T11:58:18;12.50;59.10
7920;DHT22;18778;47.610;9.776;2023-04-06T12:00:44;12.60;64.40
7920;DHT22;18778;47.610;9.776;2023-04-06T12:03:11;13.10;65.80
7920;DHT22;18778;47.610;9.776;2023-04-06T12:05:37;14.20;61.90
7920;DHT22;18778;47.610;9.776;2023-04-06T12:08:03;13.20;59.00
7920;DHT22;18778;47.610;9.776;2023-04-06T12:10:29;12.80;62.10
7920;DHT22;18778;47.610;9.776;2023-04-06T12:12:55;12.80;58.90
7920;DHT22;18778;47.610;9.776;2023-04-06T12:15:20;13.10;60.90
7920;DHT22;18778;47.610;9.776;2023-04-06T12:17:47;13.10;61.20
7920;DHT22;18778;47.610;9.776;2023-04-06T12:20:12;12.90;65.30
7920;DHT22;18778;47.610;9.776;2023-04-06T12:22:39;12.50;62.40
7920;DHT22;18778;47.610;9.776;2023-04-06T12:25:05;12.30;61.00
7920;DHT22;18778;47.610;9.776;2023-04-06T12:27:32;12.50;61.90
7920;DHT22;18778;47.610;9.776;2023-04-06T12:29:57;12.70;67.30
7920;DHT22;18778;47.610;9.776;2023-04-06T12:32:23;13.00;65.90
7920;DHT22;18778;47.610;9.776;2023-04-06T12:34:50;12.50;65.70
7920;DHT22;18778;47.610;9.776;2023-04-06T12:37:16;12.60;60.60
7920;DHT22;18778;47.610;9.776;2023-04-06T12:39:41;12.60;60.90
7920;DHT22;18778;47.610;9.776;2023-04-06T12:42:09;12.70;63.50
7920;DHT22;18778;47.610;9.776;2023-04-06T12:44:35;12.80;64.80
7920;DHT22;18778;47.610;9.776;2023-04-06T12:47:01;13.10;63.20
7920;DHT22;18778;47.610;9.776;2023-04-06T12:49:26;13.10;62.30
7920;DHT22;18778;47.610;9.776;2023-04-06T12:51:52;13.50;64.80
7920;DHT22;18778;47.610;9.776;2023-04-06T12:54:17;13.80;64.60
7920;DHT22;18778;47.610;9.776;2023-04-06T12:56:43;13.70;61.60
7920;DHT22;18778;47.610;9.776;2023-04-06T12:59:09;13.70;67.30
7920;DHT22;18778;47.610;9.776;2023-04-06T13:01:34;13.70;62.30
7920;DHT22;18778;47.610;9.776;2023-04-06T13:04:00;13.60;63.60
7920;DHT22;18778;47.610;9.776;2023-04-06T13:06:26;13.60;64.80
7920;DHT22;18778;47.610;9.776;2023-04-06T13:08:53;13.60;60.50
7920;DHT22;18778;47.610;9.776;2023-04-06T13:11:18;13.70;63.80
7920;DHT22;18778;47.610;9.776;2023-04-06T13:13:46;13.60;60.50
7920;DHT22;18778;47.610;9.776;2023-04-06T13:16:11;13.40;61.30
7920;DHT22;18778;47.610;9.776;2023-04-06T13:18:37;13.30;63.80
7920;DHT22;18778;47.610;9.776;2023-04-06T13:21:04;13.70;61.40
7920;DHT22;18778;47.610;9.776;2023-04-06T13:23:31;13.90;67.20
7920;DHT22;18778;47.610;9.776;2023-04-06T13:25:58;14.00;64.10
7920;DHT22;18778;47.610;9.776;2023-04-06T13:28:24;13.90;59.80
7920;DHT22;18778;47.610;9.776;2023-04-06T13:30:49;14.10;61.10
7920;DHT22;18778;47.610;9.776;2023-04-06T13:33:15;14.40;64.20
7920;DHT22;18778;47.610;9.776;2023-04-06T13:35:44;14.50;61.10
7920;DHT22;18778;47.610;9.776;2023-04-06T13:38:11;14.90;62.60
7920;DHT22;18778;47.610;9.776;2023-04-06T13:40:39;15.30;63.00
7920;DHT22;18778;47.610;9.776;2023-04-06T13:43:05;15.70;59.80
7920;DHT22;18778;47.610;9.776;2023-04-06T13:45:31;16.00;58.30
7920;DHT22;18778;47.610;9.776;2023-04-06T13:47:56;16.50;55.10
7920;DHT22;18778;47.610;9.776;2023-04-06T13:52:48;16.30;52.60
7920;DHT22;18778;47.610;9.776;2023-04-06T13:55:14;16.50;56.60
7920;DHT22;18778;47.610;9.776;2023-04-06T13:57:41;17.10;53.60
7920;DHT22;18778;47.610;9.776;2023-04-06T14:00:07;17.90;51.70
7920;DHT22;18778;47.610;9.776;2023-04-06T14:02:33;18.40;51.90
7920;DHT22;18778;47.610;9.776;2023-04-06T14:04:59;18.70;51.60
7920;DHT22;18778;47.610;9.776;2023-04-06T14:07:24;18.70;50.00
7920;DHT22;18778;47.610;9.776;2023-04-06T14:09:50;18.70;49.10
7920;DHT22;18778;47.610;9.776;2023-04-06T14:12:16;19.10;47.40
7920;DHT22;18778;47.610;9.776;2023-04-06T14:14:41;19.40;47.30
7920;DHT22;18778;47.610;9.776;2023-04-06T14:17:07;19.70;48.50
7920;DHT22;18778;47.610;9.776;2023-04-06T14:19:33;20.20;47.60
7920;DHT22;18778;47.610;9.776;2023-04-06T14:21:59;19.90;44.00
7920;DHT22;18778;47.610;9.776;2023-04-06T14:24:25;20.10;45.70
7920;DHT22;18778;47.610;9.776;2023-04-06T14:26:51;20.20;44.40
7920;DHT22;18778;47.610;9.776;2023-04-06T14:29:17;20.10;46.20
7920;DHT22;18778;47.610;9.776;2023-04-06T14:31:44;20.00;46.00
7920;DHT22;18778;47.610;9.776;2023-04-06T14:34:10;20.00;46.80
7920;DHT22;18778;47.610;9.776;2023-04-06T14:36:36;20.50;46.00
7920;DHT22;18778;47.610;9.776;2023-04-06T14:39:06;20.50;45.70
7920;DHT22;18778;47.610;9.776;2023-04-06T14:41:33;20.70;44.70
7920;DHT22;18778;47.610;9.776;2023-04-06T14:43:59;20.50;45.00
7920;DHT22;18778;47.610;9.776;2023-04-06T14:46:25;20.00;42.80
7920;DHT22;18778;47.610;9.776;2023-04-06T14:48:55;19.50;44.50
7920;DHT22;18778;47.610;9.776;2023-04-06T14:51:21;18.50;45.40
7920;DHT22;18778;47.610;9.776;2023-04-06T14:53:47;18.00;44.80
7920;DHT22;18778;47.610;9.776;2023-04-06T14:56:13;17.90;45.60
7920;DHT22;18778;47.610;9.776;2023-04-06T14:58:38;17.50;46.00
7920;DHT22;18778;47.610;9.776;2023-04-06T15:01:04;17.40;44.30
7920;DHT22;18778;47.610;9.776;2023-04-06T15:03:31;17.20;47.10
7920;DHT22;18778;47.610;9.776;2023-04-06T15:05:57;16.90;47.70
7920;DHT22;18778;47.610;9.776;2023-04-06T15:08:23;16.70;45.40
7920;DHT22;18778;47.610;9.776;2023-04-06T15:10:49;17.10;47.80
7920;DHT22;18778;47.610;9.776;2023-04-06T15:13:15;16.20;44.90
7920;DHT22;18778;47.610;9.776;2023-04-06T15:15:41;15.90;44.70
7920;DHT22;18778;47.610;9.776;2023-04-06T15:18:07;15.60;45.80
7920;DHT22;18778;47.610;9.776;2023-04-06T15:20:33;15.50;48.50
7920;DHT22;18778;47.610;9.776;2023-04-06T15:23:00;16.20;49.00
7920;DHT22;18778;47.610;9.776;2023-04-06T15:25:26;15.30;45.50
7920;DHT22;18778;47.610;9.776;2023-04-06T15:27:51;15.10;47.10
7920;DHT22;18778;47.610;9.776;2023-04-06T15:30:17;15.00;48.70
7920;DHT22;18778;47.610;9.776;2023-04-06T15:32:57;15.20;49.40
7920;DHT22;18778;47.610;9.776;2023-04-06T15:35:23;15.30;47.30
7920;DHT22;18778;47.610;9.776;2023-04-06T15:37:51;15.60;48.20
7920;DHT22;18778;47.610;9.776;2023-04-06T15:40:16;15.60;46.70
7920;DHT22;18778;47.610;9.776;2023-04-06T15:42:42;16.10;48.80
7920;DHT22;18778;47.610;9.776;2023-04-06T15:45:09;16.10;49.90
7920;DHT22;18778;47.610;9.776;2023-04-06T15:47:42;16.40;48.00
7920;DHT22;18778;47.610;9.776;2023-04-06T15:50:09;16.60;44.80
7920;DHT22;18778;47.610;9.776;2023-04-06T15:52:35;16.60;44.80
7920;DHT22;18778;47.610;9.776;2023-04-06T15:55:05;16.90;44.70
7920;DHT22;18778;47.610;9.776;2023-04-06T15:57:32;16.80;44.20
7920;DHT22;18778;47.610;9.776;2023-04-06T15:59:58;16.30;45.90
7920;DHT22;18778;47.610;9.776;2023-04-06T16:02:24;16.00;46.70
7920;DHT22;18778;47.610;9.776;2023-04-06T16:04:57;16.40;47.30
7920;DHT22;18778;47.610;9.776;2023-04-06T16:07:23;16.90;43.60
7920;DHT22;18778;47.610;9.776;2023-04-06T16:09:52;17.00;43.70
7920;DHT22;18778;47.610;9.776;2023-04-06T16:12:18;16.80;43.20
7920;DHT22;18778;47.610;9.776;2023-04-06T16:14:44;17.00;47.20
7920;DHT22;18778;47.610;9.776;2023-04-06T16:19:37;16.40;45.60
7920;DHT22;18778;47.610;9.776;2023-04-06T16:22:02;16.00;45.20
7920;DHT22;18778;47.610;9.776;2023-04-06T16:24:28;17.30;46.90
7920;DHT22;18778;47.610;9.776;2023-04-06T16:26:54;15.20;46.90
7920;DHT22;18778;47.610;9.776;2023-04-06T16:29:20;14.70;46.30
7920;DHT22;18778;47.610;9.776;2023-04-06T16:31:46;14.00;47.00
7920;DHT22;18778;47.610;9.776;2023-04-06T16:34:12;13.30;46.70
7920;DHT22;18778;47.610;9.776;2023-04-06T16:36:38;12.80;50.20
7920;DHT22;18778;47.610;9.776;2023-04-06T16:39:08;12.40;51.70
7920;DHT22;18778;47.610;9.776;2023-04-06T16:41:34;12.10;51.50
7920;DHT22;18778;47.610;9.776;2023-04-06T16:44:00;13.10;52.40
7920;DHT22;18778;47.610;9.776;2023-04-06T16:46:32;11.70;52.20
7920;DHT22;18778;47.610;9.776;2023-04-06T16:48:59;12.20;52.80
7920;DHT22;18778;47.610;9.776;2023-04-06T16:51:25;11.50;54.30
7920;DHT22;18778;47.610;9.776;2023-04-06T16:53:52;13.20;56.40
7920;DHT22;18778;47.610;9.776;2023-04-06T16:56:18;11.20;56.30
7920;DHT22;18778;47.610;9.776;2023-04-06T16:58:43;11.60;55.40
7920;DHT22;18778;47.610;9.776;2023-04-06T17:01:26;11.10;55.60
7920;DHT22;18778;47.610;9.776;2023-04-06T17:03:52;11.00;54.90
7920;DHT22;18778;47.610;9.776;2023-04-06T17:06:19;11.30;57.00
7920;DHT22;18778;47.610;9.776;2023-04-06T17:08:45;10.80;57.90
7920;DHT22;18778;47.610;9.776;2023-04-06T17:11:12;10.70;57.90
7920;DHT22;18778;47.610;9.776;2023-04-06T17:13:39;10.50;59.30
7920;DHT22;18778;47.610;9.776;2023-04-06T17:16:05;10.30;59.20
7920;DHT22;18778;47.610;9.776;2023-04-06T17:18:31;10.10;61.70
7920;DHT22;18778;47.610;9.776;2023-04-06T17:20:57;10.00;61.00
7920;DHT22;18778;47.610;9.776;2023-04-06T17:23:24;10.50;62.90
7920;DHT22;18778;47.610;9.776;2023-04-06T17:25:50;9.80;64.00
7920;DHT22;18778;47.610;9.776;2023-04-06T17:28:16;11.10;63.00
7920;DHT22;18778;47.610;9.776;2023-04-06T17:30:42;9.70;62.70
7920;DHT22;18778;47.610;9.776;2023-04-06T17:33:07;9.50;64.50
7920;DHT22;18778;47.610;9.776;2023-04-06T17:35:34;9.40;65.60
7920;DHT22;18778;47.610;9.776;2023-04-06T17:38:00;9.10;65.70
7920;DHT22;18778;47.610;9.776;2023-04-06T17:40:26;9.10;66.40
7920;DHT22;18778;47.610;9.776;2023-04-06T17:42:52;11.40;65.80
7920;DHT22;18778;47.610;9.776;2023-04-06T17:45:17;9.00;65.30
7920;DHT22;18778;47.610;9.776;2023-04-06T17:47:43;9.10;66.40
7920;DHT22;18778;47.610;9.776;2023-04-06T17:50:09;10.80;66.20
7920;DHT22;18778;47.610;9.776;2023-04-06T17:52:34;8.70;65.80
7920;DHT22;18778;47.610;9.776;2023-04-06T17:55:01;10.80;69.30
7920;DHT22;18778;47.610;9.776;2023-04-06T17:57:27;8.50;69.50
7920;DHT22;18778;47.610;9.776;2023-04-06T17:59:53;8.50;70.00
7920;DHT22;18778;47.610;9.776;2023-04-06T18:02:19;8.50;70.30
7920;DHT22;18778;47.610;9.776;2023-04-06T18:04:45;8.30;71.30
7920;DHT22;18778;47.610;9.776;2023-04-06T18:07:10;8.20;72.10
7920;DHT22;18778;47.610;9.776;2023-04-06T18:09:37;8.10;72.60
7920;DHT22;18778;47.610;9.776;2023-04-06T18:12:03;8.10;73.50
7920;DHT22;18778;47.610;9.776;2023-04-06T18:14:29;8.00;73.40
7920;DHT22;18778;47.610;9.776;2023-04-06T18:16:55;8.10;74.00
7920;DHT22;18778;47.610;9.776;2023-04-06T18:19:20;7.90;74.00
7920;DHT22;18778;47.610;9.776;2023-04-06T18:21:46;7.70;74.20
7920;DHT22;18778;47.610;9.776;2023-04-06T18:24:11;7.70;74.70
7920;DHT22;18778;47.610;9.776;2023-04-06T18:26:37;7.70;75.40
7920;DHT22;18778;47.610;9.776;2023-04-06T18:29:02;7.60;76.20
7920;DHT22;18778;47.610;9.776;2023-04-06T18:31:28;7.50;79.70
7920;DHT22;18778;47.610;9.776;2023-04-06T18:33:55;7.40;81.40
7920;DHT22;18778;47.610;9.776;2023-04-06T18:36:21;9.70;82.60
7920;DHT22;18778;47.610;9.776;2023-04-06T18:38:47;7.20;81.20
7920;DHT22;18778;47.610;9.776;2023-04-06T18:41:14;7.10;80.60
7920;DHT22;18778;47.610;9.776;2023-04-06T18:43:39;7.10;78.90
7920;DHT22;18778;47.610;9.776;2023-04-06T18:46:13;7.10;81.10
7920;DHT22;18778;47.610;9.776;2023-04-06T18:48:40;7.10;81.50
7920;DHT22;18778;47.610;9.776;2023-04-06T18:51:05;7.00;83.70
7920;DHT22;18778;47.610;9.776;2023-04-06T18:53:31;6.80;82.30
7920;DHT22;18778;47.610;9.776;2023-04-06T18:55:57;6.80;79.50
7920;DHT22;18778;47.610;9.776;2023-04-06T18:58:23;6.80;79.20
7920;DHT22;18778;47.610;9.776;2023-04-06T19:00:50;6.80;79.10
7920;DHT22;18778;47.610;9.776;2023-04-06T19:03:15;6.80;79.10
7920;DHT22;18778;47.610;9.776;2023-04-06T19:05:41;8.00;80.70
7920;DHT22;18778;47.610;9.776;2023-04-06T19:08:07;6.80;78.70
7920;DHT22;18778;47.610;9.776;2023-04-06T19:10:34;6.80;76.40
7920;DHT22;18778;47.610;9.776;2023-04-06T19:12:59;6.80;78.30
7920;DHT22;18778;47.610;9.776;2023-04-06T19:15:25;6.80;78.90
7920;DHT22;18778;47.610;9.776;2023-04-06T19:17:51;6.80;83.50
7920;DHT22;18778;47.610;9.776;2023-04-06T19:20:16;6.80;84.60
7920;DHT22;18778;47.610;9.776;2023-04-06T19:22:42;6.60;83.70